Time;durP1;ratioP1;P1;durP2;ratioP2;P2;SDS_P1;SDS_P2;PMS_P1;PMS_P2;Temp;Humidity;BMP_temperature;BMP_pressure;BME280_temperature;BME280_humidity;BME280_pressure;Samples;Min_cycle;Max_cycle;Signal;HPM_P1;HPM_P2
2023/06/08 00:01:44;;;;;;;;;14.75;13.25;26.50;51.70;;;;;;111316;1243;48932;-59
2023/06/08 00:04:12;;;;;;;;;13.75;12.75;26.40;51.40;;;;;;111104;1243;49882;-60
2023/06/08 00:06:40;;;;;;;;;13.67;12.67;26.40;51.40;;;;;;111234;1238;54784;-59
2023/06/08 00:09:08;;;;;;;;;13.50;12.50;26.40;51.40;;;;;;111255;1238;44931;-60
2023/06/08 00:11:35;;;;;;;;;14.33;12.67;26.40;51.40;;;;;;111285;1243;49528;-60
2023/06/08 00:14:02;;;;;;;;;13.67;12.67;26.40;51.40;;;;;;111248;1239;49331;-59
2023/06/08 00:16:29;;;;;;;;;13.00;12.00;26.40;51.50;;;;;;110958;1238;53949;-59
2023/06/08 00:18:56;;;;;;;;;13.00;12.00;26.40;51.50;;;;;;111174;1238;44964;-60
2023/06/08 00:21:24;;;;;;;;;12.75;11.75;26.40;51.40;;;;;;111192;1238;49150;-59
2023/06/08 00:23:51;;;;;;;;;13.00;12.00;26.40;51.40;;;;;;111154;1243;49373;-59
2023/06/08 00:26:18;;;;;;;;;16.33;14.00;26.40;51.70;;;;;;110942;1238;53666;-59
2023/06/08 00:28:47;;;;;;;;;13.00;11.00;26.30;51.40;;;;;;111195;1239;46018;-59
2023/06/08 00:31:15;;;;;;;;;13.00;11.00;26.40;51.40;;;;;;111229;1243;49804;-58
2023/06/08 00:33:42;;;;;;;;;12.00;11.00;26.40;52.00;;;;;;111246;1243;49307;-60
2023/06/08 00:36:10;;;;;;;;;14.00;12.33;26.30;51.40;;;;;;111313;1238;53938;-61
2023/06/08 00:38:37;;;;;;;;;13.25;12.00;26.40;51.60;;;;;;111248;1238;45780;-63
2023/06/08 00:41:05;;;;;;;;;11.75;10.75;26.30;51.30;;;;;;111283;1243;49564;-63
2023/06/08 00:43:32;;;;;;;;;12.75;11.75;26.30;51.30;;;;;;111300;1239;49393;-60
2023/06/08 00:46:02;;;;;;;;;15.00;13.75;26.30;51.50;;;;;;111154;1241;53979;-61
2023/06/08 00:48:30;;;;;;;;;12.75;11.75;26.30;51.40;;;;;;111239;1243;44861;-59
2023/06/08 00:50:58;;;;;;;;;14.75;13.75;26.30;51.40;;;;;;111202;1243;49045;-59
2023/06/08 00:53:26;;;;;;;;;12.00;11.00;26.30;51.90;;;;;;111340;1241;49740;-59
2023/06/08 00:55:53;;;;;;;;;14.00;13.00;26.30;51.40;;;;;;110928;1243;54363;-60
2023/06/08 00:58:20;;;;;;;;;12.00;11.25;26.30;51.40;;;;;;111437;1241;45098;-59
2023/06/08 01:00:49;;;;;;;;;13.50;12.50;26.30;51.40;;;;;;111404;1243;49693;-59
2023/06/08 01:03:16;;;;;;;;;13.75;12.00;26.30;51.40;;;;;;111228;1240;50435;-60
2023/06/08 01:05:45;;;;;;;;;13.75;11.00;26.30;51.30;;;;;;111109;1241;53319;-60
2023/06/08 01:08:25;;;;;;;;;14.75;13.75;26.30;51.40;;;;;;111167;1240;44355;-58
2023/06/08 01:11:21;;;;;;;;;12.00;11.00;26.30;51.40;;;;;;111401;1241;48811;-59
2023/06/08 01:14:16;;;;;;;;;15.33;13.00;26.30;51.60;;;;;;111159;1243;49080;-59
2023/06/08 01:16:49;;;;;;;;;13.75;12.75;26.20;51.30;;;;;;111093;1241;54393;-59
2023/06/08 01:19:33;;;;;;;;;13.33;12.00;26.30;51.30;;;;;;111388;1238;44208;-59
2023/06/08 01:22:24;;;;;;;;;16.00;13.00;26.30;51.40;;;;;;109728;1238;2016776;-59
2023/06/08 01:24:56;;;;;;;;;16.75;12.00;26.30;51.50;;;;;;111011;1244;49319;-59
2023/06/08 01:27:25;;;;;;;;;15.50;12.75;26.30;51.20;;;;;;111369;1241;54250;-60
2023/06/08 01:29:52;;;;;;;;;13.00;11.00;26.30;51.20;;;;;;111163;1238;45563;-59
2023/06/08 01:32:19;;;;;;;;;12.00;11.25;26.30;51.20;;;;;;111192;1243;49394;-58
2023/06/08 01:34:46;;;;;;;;;11.00;10.00;26.30;51.20;;;;;;111182;1240;49431;-59
2023/06/08 01:37:30;;;;;;;;;13.00;12.00;26.30;51.50;;;;;;111192;1243;53508;-59
2023/06/08 01:40:08;;;;;;;;;13.33;12.33;26.30;51.30;;;;;;111389;1237;44379;-59
2023/06/08 01:42:35;;;;;;;;;12.00;11.00;26.20;51.20;;;;;;111171;1240;50510;-59
2023/06/08 01:45:16;;;;;;;;;13.00;11.67;26.20;51.20;;;;;;111270;1238;49472;-58
2023/06/08 01:47:51;;;;;;;;;13.75;12.75;26.20;51.20;;;;;;111265;1243;53482;-59
2023/06/08 01:50:19;;;;;;;;;16.00;12.00;26.20;51.20;;;;;;111239;1239;45165;-60
2023/06/08 01:52:47;;;;;;;;;12.00;11.00;26.20;51.10;;;;;;111247;1243;49623;-59
2023/06/08 01:55:18;;;;;;;;;14.00;13.00;26.20;51.10;;;;;;110858;1241;49416;-59
2023/06/08 01:57:45;;;;;;;;;15.67;14.67;26.20;51.40;;;;;;111167;1241;54310;-58
2023/06/08 02:00:14;;;;;;;;;12.00;11.00;26.20;51.20;;;;;;111234;1241;44747;-59
2023/06/08 02:02:41;;;;;;;;;12.00;11.00;26.20;51.20;;;;;;111456;1239;48921;-59
2023/06/08 02:05:10;;;;;;;;;12.50;11.50;26.20;51.20;;;;;;111109;1243;49491;-58
2023/06/08 02:07:38;;;;;;;;;11.00;10.00;26.10;51.40;;;;;;111383;1243;53710;-59
2023/06/08 02:10:07;;;;;;;;;13.00;11.67;26.10;50.70;;;;;;111277;1238;44699;-59
2023/06/08 02:12:34;;;;;;;;;14.00;11.75;26.10;51.10;;;;;;111460;1240;49674;-61
2023/06/08 02:15:01;;;;;;;;;12.25;11.25;26.10;51.10;;;;;;111291;1237;49998;-59
2023/06/08 02:17:36;;;;;;;;;13.25;12.00;26.10;51.20;;;;;;111508;1240;53534;-59
2023/06/08 02:20:08;;;;;;;;;13.00;12.00;26.10;51.10;;;;;;111208;1243;44402;-58
2023/06/08 02:22:37;;;;;;;;;13.00;12.00;26.10;51.10;;;;;;111190;1240;48763;-59
2023/06/08 02:25:05;;;;;;;;;11.75;10.75;26.10;51.30;;;;;;111226;1241;49576;-57
2023/06/08 02:27:36;;;;;;;;;14.50;12.25;26.10;51.40;;;;;;111475;1240;54225;-59
2023/06/08 02:30:08;;;;;;;;;14.00;12.00;26.10;51.10;;;;;;111242;1243;44308;-60
2023/06/08 02:32:35;;;;;;;;;13.75;12.75;26.10;51.10;;;;;;111189;1238;49387;-59
2023/06/08 02:35:04;;;;;;;;;13.75;13.00;26.10;51.30;;;;;;111235;1238;49813;-59
2023/06/08 02:37:30;;;;;;;;;11.00;10.00;26.10;51.20;;;;;;111528;1243;53798;-60
2023/06/08 02:39:57;;;;;;;;;11.00;10.00;26.10;51.60;;;;;;111585;1242;45070;-59
2023/06/08 02:42:24;;;;;;;;;15.00;12.25;26.10;51.10;;;;;;111601;1238;49356;-59
2023/06/08 02:44:51;;;;;;;;;14.50;12.25;26.10;51.10;;;;;;111307;1238;49593;-58
2023/06/08 02:47:19;;;;;;;;;14.50;12.00;26.00;51.30;;;;;;111264;1243;54764;-58
2023/06/08 02:49:46;;;;;;;;;14.00;11.00;26.00;51.10;;;;;;111546;1239;44820;-59
2023/06/08 02:52:13;;;;;;;;;10.00;9.00;26.00;51.30;;;;;;111462;1243;49351;-58
2023/06/08 02:54:40;;;;;;;;;12.50;11.50;26.00;51.20;;;;;;111452;1241;49104;-59
2023/06/08 02:57:07;;;;;;;;;13.33;12.67;26.00;51.40;;;;;;111458;1241;54379;-58
2023/06/08 02:59:36;;;;;;;;;13.00;11.00;26.00;51.10;;;;;;111172;1240;44535;-59
2023/06/08 03:02:04;;;;;;;;;12.00;11.00;26.00;51.10;;;;;;111261;1239;49915;-59
2023/06/08 03:04:31;;;;;;;;;12.00;11.00;26.00;51.20;;;;;;111313;1238;49755;-59
2023/06/08 03:06:58;;;;;;;;;13.00;10.00;26.00;51.10;;;;;;111414;1237;53815;-59
2023/06/08 03:09:29;;;;;;;;;12.00;11.00;26.00;51.10;;;;;;111380;1243;44638;-59
2023/06/08 03:11:56;;;;;;;;;13.00;10.50;26.00;51.10;;;;;;111528;1239;50454;-59
2023/06/08 03:14:28;;;;;;;;;12.00;11.00;25.90;51.10;;;;;;111499;1242;50128;-59
2023/06/08 03:17:02;;;;;;;;;11.75;10.75;25.90;51.10;;;;;;111508;1239;53131;-58
2023/06/08 03:19:30;;;;;;;;;13.00;12.00;25.90;51.10;;;;;;111404;1241;44108;-68
2023/06/08 03:21:59;;;;;;;;;13.00;11.75;25.90;51.10;;;;;;111419;1241;50087;-59
2023/06/08 03:24:31;;;;;;;;;12.75;11.75;25.90;51.30;;;;;;111440;1238;49673;-60
2023/06/08 03:26:58;;;;;;;;;13.00;12.00;25.90;51.40;;;;;;111342;1244;53276;-59
2023/06/08 03:29:26;;;;;;;;;14.00;13.00;25.90;51.80;;;;;;111500;1238;44242;-60
2023/06/08 03:31:53;;;;;;;;;16.00;15.00;25.90;52.20;;;;;;111429;1238;49149;-67
2023/06/08 03:34:25;;;;;;;;;16.75;15.25;25.90;52.80;;;;;;111580;1241;49376;-61
2023/06/08 03:36:53;;;;;;;;;18.00;15.00;25.90;53.20;;;;;;111335;1243;53159;-62
2023/06/08 03:39:20;;;;;;;;;17.00;15.00;25.90;53.40;;;;;;111472;1241;44136;-60
2023/06/08 03:41:48;;;;;;;;;17.25;16.25;25.90;53.30;;;;;;111337;1241;49858;-59
2023/06/08 03:44:15;;;;;;;;;15.00;14.00;25.90;53.40;;;;;;111357;1241;49628;-59
2023/06/08 03:46:44;;;;;;;;;16.00;13.67;25.90;53.40;;;;;;111500;1241;53689;-58
2023/06/08 03:49:11;;;;;;;;;13.00;12.00;25.90;53.60;;;;;;111322;1243;45011;-60
2023/06/08 03:51:39;;;;;;;;;19.00;16.75;25.90;53.70;;;;;;111322;1239;49618;-59
2023/06/08 03:54:06;;;;;;;;;17.50;15.50;25.90;53.70;;;;;;111436;1241;49834;-60
2023/06/08 03:56:33;;;;;;;;;17.50;16.00;25.90;53.40;;;;;;111333;1240;54406;-60
2023/06/08 03:59:01;;;;;;;;;18.67;16.33;25.90;53.30;;;;;;111397;1241;44810;-60
2023/06/08 04:01:30;;;;;;;;;18.00;17.00;25.90;53.40;;;;;;111444;1243;49237;-59
2023/06/08 04:03:57;;;;;;;;;16.67;15.67;25.90;53.20;;;;;;111272;1238;49488;-60
2023/06/08 04:06:24;;;;;;;;;17.00;16.00;25.90;53.20;;;;;;110971;1238;53835;-59
2023/06/08 04:08:51;;;;;;;;;18.00;15.50;26.00;53.40;;;;;;111137;1239;44198;-59
2023/06/08 04:11:18;;;;;;;;;19.75;17.00;26.00;53.20;;;;;;111166;1243;50208;-58
2023/06/08 04:13:45;;;;;;;;;32.00;24.50;26.00;52.90;;;;;;111302;1238;49423;-59
2023/06/08 04:16:13;;;;;;;;;49.00;31.00;26.10;54.10;;;;;;111264;1238;53941;-61
2023/06/08 04:18:40;;;;;;;;;37.25;29.00;26.10;55.50;;;;;;111383;1241;44571;-59
2023/06/08 04:21:08;;;;;;;;;45.00;32.00;26.10;54.70;;;;;;111404;1241;48795;-60
2023/06/08 04:23:36;;;;;;;;;44.00;30.33;26.20;55.20;;;;;;111467;1241;49574;-61
2023/06/08 04:26:06;;;;;;;;;34.00;29.75;26.20;56.30;;;;;;111034;1243;54157;-64
2023/06/08 04:28:33;;;;;;;;;59.50;41.25;26.20;56.60;;;;;;111229;1238;44868;-63
2023/06/08 04:31:01;;;;;;;;;51.50;38.00;26.20;56.50;;;;;;111257;1244;51054;-61
2023/06/08 04:33:28;;;;;;;;;60.00;39.25;26.30;56.40;;;;;;111259;1239;49873;-63
2023/06/08 04:35:56;;;;;;;;;47.50;31.75;26.20;56.50;;;;;;110988;1239;54193;-62
2023/06/08 04:38:25;;;;;;;;;50.50;31.25;26.30;56.50;;;;;;111219;1238;44721;-60
2023/06/08 04:40:53;;;;;;;;;47.00;33.67;26.30;56.20;;;;;;111396;1238;50937;-61
2023/06/08 04:43:21;;;;;;;;;56.00;36.50;26.30;56.10;;;;;;111477;1243;50428;-62
2023/06/08 04:46:00;;;;;;;;;53.67;37.00;26.30;56.20;;;;;;111033;1240;53995;-66
2023/06/08 04:48:28;;;;;;;;;47.50;35.75;26.30;56.10;;;;;;111493;1238;45298;-67
2023/06/08 04:51:03;;;;;;;;;42.25;31.25;26.30;55.80;;;;;;111357;1240;49869;-61
2023/06/08 04:53:34;;;;;;;;;47.25;35.25;26.40;55.50;;;;;;111314;1244;50020;-66
2023/06/08 04:56:02;;;;;;;;;50.00;34.00;26.30;55.40;;;;;;111379;1241;54691;-65
2023/06/08 04:58:30;;;;;;;;;43.67;32.00;26.40;55.20;;;;;;111214;1238;45006;-66
2023/06/08 05:00:57;;;;;;;;;46.75;34.00;26.40;55.10;;;;;;111405;1242;49099;-65
2023/06/08 05:03:26;;;;;;;;;45.75;33.50;26.40;54.60;;;;;;111250;1240;49323;-66
2023/06/08 05:05:54;;;;;;;;;38.25;32.25;26.40;55.10;;;;;;111263;1240;53207;-65
2023/06/08 05:08:21;;;;;;;;;42.50;32.50;26.40;55.10;;;;;;111302;1241;45647;-65
2023/06/08 05:10:48;;;;;;;;;44.50;32.25;26.40;54.90;;;;;;111393;1238;49676;-65
2023/06/08 05:13:15;;;;;;;;;31.75;28.75;26.40;54.80;;;;;;111200;1238;49764;-66
2023/06/08 05:15:42;;;;;;;;;45.00;33.75;26.40;54.70;;;;;;111466;1243;53440;-65
2023/06/08 05:18:09;;;;;;;;;41.33;33.67;26.40;54.90;;;;;;111431;1239;44405;-65
2023/06/08 05:20:36;;;;;;;;;46.25;31.50;26.40;54.80;;;;;;111367;1242;50479;-66
2023/06/08 05:23:03;;;;;;;;;42.25;32.25;26.40;54.50;;;;;;111322;1238;50502;-66
2023/06/08 05:25:30;;;;;;;;;48.50;33.25;26.40;54.40;;;;;;111208;1243;54460;-65
2023/06/08 05:27:57;;;;;;;;;44.25;30.75;26.40;54.30;;;;;;111214;1238;44388;-66
2023/06/08 05:30:25;;;;;;;;;36.75;31.25;26.40;54.20;;;;;;111310;1244;49800;-65
2023/06/08 05:32:52;;;;;;;;;30.67;27.00;26.40;54.10;;;;;;111468;1238;49037;-65
2023/06/08 05:35:19;;;;;;;;;43.75;31.00;26.40;54.20;;;;;;111339;1239;54451;-65
2023/06/08 05:37:46;;;;;;;;;42.67;30.00;26.40;54.00;;;;;;111440;1240;44519;-70
2023/06/08 05:40:13;;;;;;;;;40.75;30.75;26.40;54.00;;;;;;111629;1238;49278;-66
2023/06/08 05:42:40;;;;;;;;;42.00;31.00;26.40;53.90;;;;;;111194;1240;50515;-65
2023/06/08 05:45:07;;;;;;;;;42.75;32.75;26.40;53.80;;;;;;111221;1243;53824;-66
2023/06/08 05:47:34;;;;;;;;;34.25;28.25;26.40;53.80;;;;;;111191;1240;45001;-66
2023/06/08 05:50:01;;;;;;;;;43.50;30.75;26.40;53.70;;;;;;111392;1239;49722;-65
2023/06/08 05:52:30;;;;;;;;;40.25;31.00;26.30;53.70;;;;;;111193;1243;50341;-65
2023/06/08 05:54:58;;;;;;;;;37.50;29.00;26.30;53.60;;;;;;111247;1239;53377;-65
2023/06/08 05:57:25;;;;;;;;;35.75;29.75;26.30;53.50;;;;;;111445;1242;43979;-66
2023/06/08 05:59:52;;;;;;;;;39.33;29.00;26.30;53.40;;;;;;111239;1238;52492;-65
2023/06/08 06:02:19;;;;;;;;;41.25;30.00;26.30;53.40;;;;;;111191;1243;48997;-65
2023/06/08 06:04:46;;;;;;;;;50.00;32.25;26.30;53.60;;;;;;111253;1238;53637;-64
2023/06/08 06:07:13;;;;;;;;;37.00;29.00;26.30;53.30;;;;;;111373;1241;45075;-65
2023/06/08 06:09:40;;;;;;;;;40.00;30.00;26.30;53.20;;;;;;111211;1238;50906;-65
2023/06/08 06:12:07;;;;;;;;;35.50;30.00;26.30;53.10;;;;;;111194;1239;49189;-65
2023/06/08 06:14:39;;;;;;;;;39.00;30.00;26.30;53.00;;;;;;111457;1241;53360;-65
2023/06/08 06:17:08;;;;;;;;;33.50;29.25;26.30;53.10;;;;;;111228;1243;44917;-65
2023/06/08 06:19:39;;;;;;;;;34.00;28.00;26.30;53.10;;;;;;111303;1238;49288;-66
2023/06/08 06:22:09;;;;;;;;;31.00;24.25;26.30;53.30;;;;;;111273;1244;49344;-65
2023/06/08 06:24:36;;;;;;;;;35.00;28.00;26.30;53.00;;;;;;111445;1241;53975;-65
2023/06/08 06:27:05;;;;;;;;;33.75;24.75;26.30;53.00;;;;;;111410;1238;44798;-66
2023/06/08 06:29:33;;;;;;;;;34.00;28.25;26.30;53.10;;;;;;111196;1238;49107;-65
2023/06/08 06:32:00;;;;;;;;;36.33;28.00;26.30;52.80;;;;;;111415;1239;50102;-66
2023/06/08 06:34:27;;;;;;;;;34.75;28.00;26.40;52.90;;;;;;111206;1244;54857;-64
2023/06/08 06:36:55;;;;;;;;;36.00;27.00;26.30;52.80;;;;;;111186;1243;44800;-64
2023/06/08 06:39:22;;;;;;;;;33.50;28.75;26.40;53.00;;;;;;111459;1243;49142;-66
2023/06/08 06:41:49;;;;;;;;;29.67;24.67;26.40;52.70;;;;;;111476;1240;49817;-66
2023/06/08 06:44:16;;;;;;;;;31.75;26.75;26.40;53.30;;;;;;111189;1239;54724;-65
2023/06/08 06:46:43;;;;;;;;;28.00;22.00;26.40;52.70;;;;;;111323;1243;44256;-65
2023/06/08 06:49:10;;;;;;;;;33.75;28.25;26.40;52.70;;;;;;111371;1242;49334;-65
2023/06/08 06:51:39;;;;;;;;;37.75;28.75;26.30;52.50;;;;;;111443;1238;49639;-66
2023/06/08 06:54:07;;;;;;;;;28.75;25.25;26.40;52.60;;;;;;111250;1243;53847;-66
2023/06/08 06:56:34;;;;;;;;;28.75;24.25;26.40;52.70;;;;;;111212;1239;44339;-65
2023/06/08 06:59:02;;;;;;;;;32.00;27.50;26.40;52.60;;;;;;111231;1238;49348;-65
2023/06/08 07:01:31;;;;;;;;;32.00;25.25;26.40;52.70;;;;;;111451;1238;49029;-66
2023/06/08 07:03:58;;;;;;;;;35.67;28.67;26.40;52.50;;;;;;111224;1244;54143;-65
2023/06/08 07:06:26;;;;;;;;;31.50;26.25;26.40;52.50;;;;;;111300;1240;45155;-65
2023/06/08 07:08:53;;;;;;;;;34.50;25.75;26.40;52.50;;;;;;111312;1239;49257;-66
2023/06/08 07:11:21;;;;;;;;;31.67;26.67;26.40;52.40;;;;;;111254;1241;49071;-65
2023/06/08 07:13:47;;;;;;;;;37.75;26.00;26.40;52.50;;;;;;111353;1241;54390;-65
2023/06/08 07:16:14;;;;;;;;;28.00;24.75;26.40;52.40;;;;;;111303;1238;44414;-66
2023/06/08 07:18:41;;;;;;;;;31.75;27.75;26.40;52.50;;;;;;111185;1244;50566;-66
2023/06/08 07:21:08;;;;;;;;;35.00;24.75;26.40;52.40;;;;;;111230;1238;50423;-66
2023/06/08 07:23:35;;;;;;;;;26.75;23.75;26.40;52.40;;;;;;111183;1244;53534;-66
2023/06/08 07:26:02;;;;;;;;;32.75;24.25;26.40;52.50;;;;;;111248;1241;44700;-65
2023/06/08 07:28:29;;;;;;;;;30.50;24.00;26.40;52.40;;;;;;111246;1244;49517;-65
2023/06/08 07:30:56;;;;;;;;;33.75;26.00;26.40;52.30;;;;;;111239;1244;49672;-65
2023/06/08 07:33:23;;;;;;;;;32.75;25.75;26.40;52.20;;;;;;111273;1243;53856;-65
2023/06/08 07:35:49;;;;;;;;;31.00;27.00;26.40;52.50;;;;;;111290;1238;44515;-66
2023/06/08 07:38:16;;;;;;;;;31.75;24.00;26.40;52.50;;;;;;111197;1240;49293;-65
2023/06/08 07:40:43;;;;;;;;;33.25;25.00;26.40;52.80;;;;;;111208;1244;50716;-63
2023/06/08 07:43:10;;;;;;;;;29.00;22.00;26.40;52.30;;;;;;111281;1242;53969;-66
2023/06/08 07:45:37;;;;;;;;;35.00;27.00;26.40;52.30;;;;;;111330;1244;44447;-65
2023/06/08 07:48:05;;;;;;;;;31.33;23.33;26.40;52.40;;;;;;111217;1244;49721;-65
2023/06/08 07:50:32;;;;;;;;;28.50;25.75;26.50;52.40;;;;;;111197;1244;50635;-66
2023/06/08 07:52:59;;;;;;;;;35.75;28.50;26.50;52.40;;;;;;111265;1244;54488;-66
2023/06/08 07:55:26;;;;;;;;;30.00;23.25;26.50;52.40;;;;;;111310;1240;44442;-66
2023/06/08 07:57:53;;;;;;;;;26.25;23.25;26.50;52.40;;;;;;111192;1243;49105;-66
2023/06/08 08:00:20;;;;;;;;;30.75;24.25;26.50;52.40;;;;;;111188;1244;49382;-66
2023/06/08 08:02:47;;;;;;;;;29.00;26.00;26.50;52.40;;;;;;111242;1244;53550;-66
2023/06/08 08:05:14;;;;;;;;;33.25;26.25;26.50;52.40;;;;;;111279;1239;45687;-66
2023/06/08 08:07:41;;;;;;;;;29.50;24.75;26.50;52.40;;;;;;111292;1243;49842;-67
2023/06/08 08:10:09;;;;;;;;;26.50;22.75;26.50;52.30;;;;;;111283;1244;49084;-67
2023/06/08 08:12:37;;;;;;;;;25.75;24.00;26.50;52.30;;;;;;111192;1240;55174;-65
2023/06/08 08:15:05;;;;;;;;;30.25;27.00;26.50;52.30;;;;;;111506;1238;44890;-65
2023/06/08 08:17:32;;;;;;;;;29.75;23.50;26.50;52.30;;;;;;111248;1238;49024;-66
2023/06/08 08:19:59;;;;;;;;;24.25;23.00;26.60;52.40;;;;;;111244;1238;49309;-65
2023/06/08 08:22:26;;;;;;;;;33.50;28.00;26.60;52.50;;;;;;111163;1243;54085;-65
2023/06/08 08:24:53;;;;;;;;;31.00;22.00;26.60;52.30;;;;;;111462;1238;45062;-65
2023/06/08 08:27:20;;;;;;;;;28.00;23.25;26.60;52.30;;;;;;111475;1238;48875;-65
2023/06/08 08:29:47;;;;;;;;;28.00;24.50;26.60;52.50;;;;;;111270;1238;50422;-66
2023/06/08 08:32:14;;;;;;;;;29.67;25.00;26.60;52.20;;;;;;111404;1241;53921;-69
2023/06/08 08:34:41;;;;;;;;;25.67;23.33;26.60;52.20;;;;;;111495;1241;44076;-65
2023/06/08 08:37:08;;;;;;;;;30.00;24.00;26.60;52.20;;;;;;111527;1239;49234;-67
2023/06/08 08:39:36;;;;;;;;;25.50;22.00;26.70;52.30;;;;;;111420;1238;50005;-68
2023/06/08 08:42:07;;;;;;;;;26.00;21.75;26.70;52.20;;;;;;111390;1241;54552;-64
2023/06/08 08:44:35;;;;;;;;;26.75;23.75;26.70;52.20;;;;;;111319;1243;44080;-66
2023/06/08 08:47:04;;;;;;;;;27.67;23.33;26.70;52.20;;;;;;111231;1239;48946;-65
2023/06/08 08:49:36;;;;;;;;;24.50;22.00;26.70;52.20;;;;;;111289;1238;49229;-65
2023/06/08 08:52:05;;;;;;;;;32.25;25.00;26.80;52.20;;;;;;111219;1241;53525;-66
2023/06/08 08:54:33;;;;;;;;;27.50;22.00;26.80;52.10;;;;;;111288;1241;44659;-65
2023/06/08 08:57:01;;;;;;;;;22.00;20.00;26.80;52.10;;;;;;111215;1241;48648;-65
2023/06/08 08:59:28;;;;;;;;;25.75;22.75;26.80;52.10;;;;;;111302;1238;49274;-66
2023/06/08 09:01:56;;;;;;;;;28.25;24.25;26.80;52.10;;;;;;111496;1241;54231;-66
2023/06/08 09:04:26;;;;;;;;;27.00;24.50;26.80;52.10;;;;;;111536;1241;44050;-65
2023/06/08 09:06:53;;;;;;;;;23.25;20.00;26.80;52.00;;;;;;111188;1243;49813;-66
2023/06/08 09:09:20;;;;;;;;;23.00;18.75;26.80;52.00;;;;;;111263;1243;49543;-65
2023/06/08 09:12:00;;;;;;;;;21.25;20.25;26.90;52.10;;;;;;111223;1238;53436;-65
2023/06/08 09:14:28;;;;;;;;;21.25;19.50;26.90;52.10;;;;;;111449;1243;44965;-65
2023/06/08 09:16:58;;;;;;;;;22.75;21.75;26.90;52.10;;;;;;111385;1239;49112;-66
2023/06/08 09:19:25;;;;;;;;;22.00;19.00;26.90;52.20;;;;;;111241;1243;49171;-66
2023/06/08 09:21:53;;;;;;;;;25.75;21.00;26.90;52.00;;;;;;111365;1238;54234;-65
2023/06/08 09:24:21;;;;;;;;;20.75;17.75;26.90;52.00;;;;;;111431;1237;44190;-64
2023/06/08 09:26:57;;;;;;;;;25.00;20.75;27.00;52.30;;;;;;111299;1243;49122;-65
2023/06/08 09:29:40;;;;;;;;;26.50;21.50;27.00;52.10;;;;;;111353;1244;50397;-67
2023/06/08 09:32:09;;;;;;;;;27.25;21.75;27.00;52.00;;;;;;111427;1238;53237;-65
2023/06/08 09:34:56;;;;;;;;;25.00;20.00;27.00;52.00;;;;;;111294;1238;44443;-65
2023/06/08 09:37:27;;;;;;;;;29.00;21.50;27.00;52.00;;;;;;111442;1242;50049;-65
2023/06/08 09:39:54;;;;;;;;;20.50;17.75;27.10;52.20;;;;;;111412;1237;49901;-65
2023/06/08 09:42:21;;;;;;;;;23.25;19.75;27.10;52.20;;;;;;111242;1238;53254;-65
2023/06/08 09:44:48;;;;;;;;;21.00;20.00;27.10;52.00;;;;;;111213;1244;45288;-65
2023/06/08 09:47:22;;;;;;;;;20.50;19.50;27.10;52.00;;;;;;111490;1241;50435;-65
2023/06/08 09:49:52;;;;;;;;;24.50;19.25;27.20;52.00;;;;;;111411;1238;49710;-66
2023/06/08 09:52:21;;;;;;;;;22.00;18.33;27.20;52.20;;;;;;111247;1244;54012;-64
2023/06/08 09:54:50;;;;;;;;;20.00;16.00;27.20;52.00;;;;;;111466;1241;44800;-65
2023/06/08 09:57:20;;;;;;;;;26.67;18.00;27.20;52.10;;;;;;111330;1243;49702;-65
2023/06/08 09:59:54;;;;;;;;;19.33;16.00;27.30;51.90;;;;;;111492;1239;48832;-66
2023/06/08 10:02:30;;;;;;;;;21.75;20.50;27.30;51.90;;;;;;111253;1240;53726;-65
2023/06/08 10:05:01;;;;;;;;;21.50;17.25;27.30;51.80;;;;;;111260;1240;44636;-66
2023/06/08 10:07:35;;;;;;;;;23.67;19.67;27.40;52.10;;;;;;111321;1243;49267;-65
2023/06/08 10:10:10;;;;;;;;;21.00;17.67;27.40;51.80;;;;;;111171;1241;49569;-66
2023/06/08 10:12:38;;;;;;;;;21.67;17.67;27.40;51.80;;;;;;111274;1239;54604;-66
2023/06/08 10:15:06;;;;;;;;;21.00;18.00;27.50;51.80;;;;;;111242;1242;44370;-64
2023/06/08 10:17:34;;;;;;;;;20.00;17.00;27.50;51.80;;;;;;111356;1241;49607;-65
2023/06/08 10:20:01;;;;;;;;;19.67;17.00;27.50;51.90;;;;;;111258;1241;49197;-64
2023/06/08 10:22:28;;;;;;;;;19.00;17.00;27.50;52.20;;;;;;111236;1239;54549;-65
2023/06/08 10:24:55;;;;;;;;;19.00;18.00;27.60;51.70;;;;;;111284;1240;45405;-65
2023/06/08 10:27:22;;;;;;;;;21.50;18.75;27.60;51.80;;;;;;111357;1243;48930;-64
2023/06/08 10:29:57;;;;;;;;;20.00;17.00;27.60;51.70;;;;;;111506;1244;50555;-66
2023/06/08 10:32:36;;;;;;;;;20.50;16.25;27.60;51.60;;;;;;111443;1244;53784;-66
2023/06/08 10:35:06;;;;;;;;;18.00;15.75;27.60;51.80;;;;;;111325;1244;44787;-65
2023/06/08 10:37:35;;;;;;;;;17.75;14.50;27.70;51.80;;;;;;111309;1238;49192;-65
2023/06/08 10:40:10;;;;;;;;;17.00;15.50;27.70;51.70;;;;;;111457;1238;49093;-65
2023/06/08 10:42:49;;;;;;;;;21.25;15.25;27.70;51.00;;;;;;111247;1246;53788;-65
2023/06/08 10:45:31;;;;;;;;;18.00;15.00;27.80;51.50;;;;;;111299;1244;44461;-66
2023/06/08 10:48:09;;;;;;;;;21.00;16.00;27.80;51.50;;;;;;111428;1239;49381;-67
2023/06/08 10:50:41;;;;;;;;;20.67;18.00;27.80;51.40;;;;;;111287;1238;50571;-66
2023/06/08 10:53:09;;;;;;;;;19.75;15.75;27.90;51.40;;;;;;111300;1243;54136;-66
2023/06/08 10:55:36;;;;;;;;;21.67;17.33;27.90;51.40;;;;;;111455;1241;44892;-65
2023/06/08 10:58:19;;;;;;;;;16.67;14.67;27.90;51.40;;;;;;111412;1241;49452;-64
2023/06/08 11:01:05;;;;;;;;;18.75;17.75;27.90;51.30;;;;;;111364;1239;49549;-65
2023/06/08 11:03:46;;;;;;;;;20.50;16.50;27.90;50.80;;;;;;111277;1238;53308;-67
2023/06/08 11:06:14;;;;;;;;;17.00;15.00;28.00;51.50;;;;;;112017;1243;44724;-66
2023/06/08 11:08:42;;;;;;;;;19.00;18.00;28.00;51.40;;;;;;111288;1238;50381;-65
2023/06/08 11:11:11;;;;;;;;;21.00;17.00;28.00;51.40;;;;;;111498;1238;49578;-63
2023/06/08 11:13:38;;;;;;;;;21.00;20.00;28.00;52.00;;;;;;111307;1240;53870;-63
2023/06/08 11:16:05;;;;;;;;;20.00;17.00;28.00;51.20;;;;;;111248;1243;44960;-60
2023/06/08 11:18:32;;;;;;;;;22.00;19.75;28.00;51.40;;;;;;111439;1243;49325;-60
2023/06/08 11:21:00;;;;;;;;;20.00;17.75;28.00;51.70;;;;;;111532;1243;49168;-61
2023/06/08 11:23:34;;;;;;;;;19.00;18.00;28.00;51.60;;;;;;111388;1240;53309;-60
2023/06/08 11:26:01;;;;;;;;;26.25;19.50;28.00;51.70;;;;;;111648;1240;44347;-61
2023/06/08 11:28:28;;;;;;;;;20.00;18.25;28.00;51.80;;;;;;111398;1241;49602;-60
2023/06/08 11:30:55;;;;;;;;;21.50;19.00;28.00;51.90;;;;;;111459;1240;49154;-59
2023/06/08 11:33:23;;;;;;;;;18.00;16.00;28.00;51.70;;;;;;111457;1243;54218;-60
2023/06/08 11:35:51;;;;;;;;;19.00;17.75;28.00;51.80;;;;;;111609;1241;44302;-62
2023/06/08 11:38:22;;;;;;;;;20.00;19.00;28.00;51.90;;;;;;111824;1237;49593;-61
2023/06/08 11:40:50;;;;;;;;;17.00;16.00;28.10;51.60;;;;;;111600;1238;50240;-61
2023/06/08 11:43:20;;;;;;;;;18.67;17.00;28.10;51.60;;;;;;111521;1239;53892;-62
2023/06/08 11:45:47;;;;;;;;;20.50;19.50;28.10;51.60;;;;;;111537;1239;45315;-61
2023/06/08 11:48:14;;;;;;;;;20.00;19.00;28.10;52.00;;;;;;111569;1242;49702;-64
2023/06/08 11:50:48;;;;;;;;;22.00;20.25;28.20;51.40;;;;;;111507;1243;49529;-62
2023/06/08 11:53:22;;;;;;;;;21.75;19.75;28.20;51.00;;;;;;111389;1243;53967;-62
2023/06/08 11:55:51;;;;;;;;;21.25;19.75;28.20;51.30;;;;;;111643;1242;44641;-63
2023/06/08 11:58:23;;;;;;;;;17.75;16.75;28.20;51.20;;;;;;111617;1238;50533;-60
2023/06/08 12:00:50;;;;;;;;;22.75;19.75;28.20;51.10;;;;;;111641;1239;49517;-61
2023/06/08 12:03:18;;;;;;;;;21.00;20.00;28.30;51.30;;;;;;111443;1244;54158;-61
2023/06/08 12:05:45;;;;;;;;;20.00;18.25;28.30;51.10;;;;;;111684;1241;44185;-61
2023/06/08 12:08:14;;;;;;;;;21.00;20.00;28.30;51.20;;;;;;111472;1238;49505;-62
2023/06/08 12:10:43;;;;;;;;;18.00;17.00;28.30;51.00;;;;;;111376;1241;50237;-60
2023/06/08 12:13:15;;;;;;;;;19.25;18.25;28.30;50.90;;;;;;111235;1240;53276;-61
2023/06/08 12:15:42;;;;;;;;;20.00;18.00;28.30;51.20;;;;;;111302;1238;45192;-60
2023/06/08 12:18:14;;;;;;;;;19.75;17.75;28.30;51.10;;;;;;111251;1238;50021;-60
2023/06/08 12:20:43;;;;;;;;;21.50;19.50;28.30;51.00;;;;;;111364;1238;49594;-61
2023/06/08 12:23:11;;;;;;;;;20.00;19.00;28.30;51.30;;;;;;111404;1238;55130;-60
2023/06/08 12:25:42;;;;;;;;;21.75;19.00;28.30;51.20;;;;;;111260;1244;44837;-63
2023/06/08 12:28:17;;;;;;;;;18.25;17.00;28.20;51.10;;;;;;111360;1240;49746;-63